Time;durP1;ratioP1;P1;durP2;ratioP2;P2;SDS_P1;SDS_P2;PMS_P1;PMS_P2;Temp;Humidity;BMP_temperature;BMP_pressure;BME280_temperature;BME280_humidity;BME280_pressure;Samples;Min_cycle;Max_cycle;Signal;HPM_P1;HPM_P2
2022/03/17 00:02:09;;;;;;;9.05;7.72;;;12.80;1.00;;;;;;5014727;28;20553;-88
2022/03/17 00:04:35;;;;;;;13.73;7.80;;;12.80;1.00;;;;;;5015179;28;20030;-88
2022/03/17 00:07:01;;;;;;;11.63;8.02;;;12.70;1.00;;;;;;5013512;28;20041;-88
2022/03/17 00:09:27;;;;;;;14.60;8.70;;;12.70;1.00;;;;;;5012931;28;20049;-88
2022/03/17 00:11:53;;;;;;;12.38;8.13;;;12.70;1.00;;;;;;5012752;28;20172;-88
2022/03/17 00:14:19;;;;;;;10.38;8.18;;;12.60;1.00;;;;;;5011703;28;20040;-88
2022/03/17 00:16:45;;;;;;;15.80;9.02;;;12.60;1.00;;;;;;5014709;28;20394;-88
2022/03/17 00:19:11;;;;;;;12.95;8.57;;;12.60;1.00;;;;;;5012778;28;20029;-88
2022/03/17 00:21:37;;;;;;;10.50;8.40;;;12.60;1.00;;;;;;5013525;28;20501;-88
2022/03/17 00:24:06;;;;;;;11.32;8.60;;;12.60;1.00;;;;;;5011518;28;20028;-89
2022/03/17 00:26:33;;;;;;;10.63;7.97;;;12.50;1.00;;;;;;4997729;28;20058;-88
2022/03/17 00:28:58;;;;;;;12.57;8.65;;;12.50;1.00;;;;;;4994200;28;20030;-88
2022/03/17 00:31:24;;;;;;;11.57;8.40;;;12.50;1.00;;;;;;5011913;28;20029;-88
2022/03/17 00:33:50;;;;;;;13.60;8.40;;;12.50;1.00;;;;;;5013739;28;20113;-87
2022/03/17 00:36:16;;;;;;;13.68;8.07;;;12.50;1.00;;;;;;5012848;28;20038;-88
2022/03/17 00:38:41;;;;;;;10.90;8.18;;;12.60;1.00;;;;;;5009968;28;20037;-87
2022/03/17 00:41:07;;;;;;;12.13;8.82;;;12.50;1.00;;;;;;5012391;28;20030;-88
2022/03/17 00:43:34;;;;;;;13.43;7.82;;;12.50;1.00;;;;;;5011667;28;20026;-88
2022/03/17 00:46:00;;;;;;;12.50;7.57;;;12.50;1.00;;;;;;5011981;28;20042;-88
2022/03/17 00:48:25;;;;;;;8.80;7.30;;;12.70;1.00;;;;;;5010429;28;20405;-88
2022/03/17 00:50:51;;;;;;;9.70;7.82;;;12.40;1.00;;;;;;5010479;28;20120;-88
2022/03/17 00:53:17;;;;;;;11.88;8.45;;;12.30;1.00;;;;;;5012352;28;20141;-88
2022/03/17 00:55:42;;;;;;;11.32;8.38;;;12.30;1.00;;;;;;5012880;28;20062;-88
2022/03/17 00:58:08;;;;;;;14.88;10.02;;;12.30;1.00;;;;;;5011554;28;20132;-88
2022/03/17 01:00:34;;;;;;;14.80;9.27;;;12.40;1.00;;;;;;5011535;28;20026;-87
2022/03/17 01:03:01;;;;;;;12.27;9.25;;;12.40;1.00;;;;;;5009040;28;20065;-88
2022/03/17 01:05:26;;;;;;;19.48;12.73;;;12.40;1.00;;;;;;5012338;28;20033;-88
2022/03/17 01:07:54;;;;;;;16.52;12.07;;;12.40;1.00;;;;;;5013146;28;20441;-88
2022/03/17 01:10:20;;;;;;;15.45;9.68;;;12.40;1.00;;;;;;5010668;28;20040;-87
2022/03/17 01:12:46;;;;;;;17.52;11.15;;;12.40;1.00;;;;;;5010863;28;20022;-88
2022/03/17 01:15:14;;;;;;;15.57;10.60;;;12.40;1.00;;;;;;5009423;28;20061;-88
2022/03/17 01:17:39;;;;;;;18.55;11.10;;;12.40;1.00;;;;;;5011011;28;20027;-88
2022/03/17 01:20:06;;;;;;;12.77;9.65;;;12.30;1.00;;;;;;5011857;28;20543;-88
2022/03/17 01:22:32;;;;;;;15.82;9.82;;;12.30;1.00;;;;;;5011374;28;20073;-88
2022/03/17 01:24:58;;;;;;;17.48;10.15;;;12.20;1.00;;;;;;5011854;28;20504;-88
2022/03/17 01:27:24;;;;;;;15.38;9.52;;;12.20;1.00;;;;;;5011771;28;20026;-88
2022/03/17 01:29:51;;;;;;;12.13;9.02;;;12.20;1.00;;;;;;5010264;28;20592;-88
2022/03/17 01:32:18;;;;;;;12.32;9.20;;;12.20;1.00;;;;;;5011936;28;20513;-88
2022/03/17 01:34:44;;;;;;;10.80;8.93;;;12.20;1.00;;;;;;5013498;28;20029;-88
2022/03/17 01:37:10;;;;;;;13.07;9.02;;;12.20;1.00;;;;;;5010358;28;20050;-88
2022/03/17 01:39:36;;;;;;;15.38;9.13;;;12.10;1.00;;;;;;5011619;28;20026;-88
2022/03/17 01:42:04;;;;;;;13.98;9.00;;;12.10;1.00;;;;;;5010041;28;20034;-88
2022/03/17 01:44:30;;;;;;;13.55;9.48;;;12.10;1.00;;;;;;5011293;28;20034;-88
2022/03/17 01:49:41;;;;;;;14.75;10.73;;;12.10;1.00;;;;;;5013689;28;20041;-88
2022/03/17 01:52:07;;;;;;;12.65;9.48;;;12.10;1.00;;;;;;5012095;28;20036;-88
2022/03/17 01:54:34;;;;;;;13.82;10.00;;;12.10;1.00;;;;;;5008241;28;20080;-88
2022/03/17 01:57:02;;;;;;;12.93;10.15;;;12.10;1.00;;;;;;5011631;28;20026;-88
2022/03/17 01:59:29;;;;;;;16.65;10.13;;;12.10;1.00;;;;;;5008933;28;20117;-88
2022/03/17 02:01:54;;;;;;;15.52;10.07;;;12.50;1.00;;;;;;5011299;28;20544;-88
2022/03/17 02:04:20;;;;;;;15.43;10.57;;;12.10;1.00;;;;;;5011393;28;20034;-87
2022/03/17 02:06:47;;;;;;;15.85;10.68;;;12.10;1.00;;;;;;5009404;28;20022;-88
2022/03/17 02:09:13;;;;;;;28.63;18.58;;;12.10;1.00;;;;;;5011250;28;20030;-88
2022/03/17 02:14:24;;;;;;;24.92;15.82;;;12.10;1.00;;;;;;5011262;28;20097;-88
2022/03/17 02:16:51;;;;;;;25.60;15.57;;;12.00;1.00;;;;;;5012770;28;20076;-88
2022/03/17 02:19:22;;;;;;;17.42;12.93;;;12.00;1.00;;;;;;5011024;28;20421;-87
2022/03/17 02:21:48;;;;;;;17.67;12.68;;;11.90;1.00;;;;;;5008901;28;20018;-87
2022/03/17 02:27:02;;;;;;;16.42;11.25;;;11.90;1.00;;;;;;5010485;28;20406;-88
2022/03/17 02:29:30;;;;;;;15.27;10.70;;;11.80;1.00;;;;;;5010706;28;20430;-88
2022/03/17 02:31:56;;;;;;;15.30;10.43;;;11.80;1.00;;;;;;5011393;28;20030;-88
2022/03/17 02:34:22;;;;;;;16.05;10.77;;;11.70;1.00;;;;;;5011871;28;20036;-88
2022/03/17 02:36:50;;;;;;;18.25;9.45;;;11.70;1.00;;;;;;5010526;28;20472;-88
2022/03/17 02:39:21;;;;;;;14.75;9.68;;;11.70;1.00;;;;;;5009929;28;20026;-88
2022/03/17 02:41:47;;;;;;;14.10;9.27;;;11.60;1.00;;;;;;5010408;28;20045;-87
2022/03/17 02:44:13;;;;;;;13.65;9.43;;;11.70;1.00;;;;;;5010707;28;20112;-87
2022/03/17 02:46:39;;;;;;;12.90;9.95;;;11.50;1.00;;;;;;5010313;28;20030;-88
2022/03/17 02:49:05;;;;;;;12.38;10.35;;;11.50;1.00;;;;;;5008246;28;20038;-88
2022/03/17 02:51:31;;;;;;;15.55;9.60;;;11.50;1.00;;;;;;5008101;28;20030;-88
2022/03/17 02:53:57;;;;;;;14.73;9.50;;;11.50;1.00;;;;;;5013377;28;20034;-88
2022/03/17 02:56:23;;;;;;;14.63;10.60;;;11.50;1.00;;;;;;5014749;28;20050;-88
2022/03/17 02:58:48;;;;;;;14.88;9.93;;;11.40;1.00;;;;;;5014957;28;20054;-88
2022/03/17 03:01:14;;;;;;;15.65;9.18;;;11.40;1.00;;;;;;5015167;28;20065;-88
2022/03/17 03:03:40;;;;;;;13.00;9.05;;;11.30;1.00;;;;;;5013300;28;20478;-88
2022/03/17 03:06:06;;;;;;;13.50;10.20;;;11.40;1.00;;;;;;5009613;28;20034;-88
2022/03/17 03:08:34;;;;;;;13.52;9.88;;;11.30;1.00;;;;;;4996060;28;20029;-88
2022/03/17 03:10:59;;;;;;;14.90;9.27;;;11.30;1.00;;;;;;5011552;28;20026;-88
2022/03/17 03:13:25;;;;;;;14.23;9.07;;;11.30;1.00;;;;;;5014165;28;20026;-88
2022/03/17 03:15:51;;;;;;;12.57;9.00;;;11.30;1.00;;;;;;5012756;28;20045;-88
2022/03/17 03:18:18;;;;;;;16.50;9.27;;;11.40;1.00;;;;;;5013783;28;20033;-87
2022/03/17 03:20:44;;;;;;;13.75;9.23;;;11.30;1.00;;;;;;5013921;28;20497;-87
2022/03/17 03:23:09;;;;;;;10.57;8.23;;;11.30;1.00;;;;;;5014065;28;20025;-88
2022/03/17 03:25:35;;;;;;;13.52;8.65;;;11.30;1.00;;;;;;5014241;28;20038;-88
2022/03/17 03:28:10;;;;;;;14.00;8.38;;;11.30;1.00;;;;;;5013960;28;20033;-87
2022/03/17 03:30:37;;;;;;;13.75;9.15;;;11.30;1.00;;;;;;5014430;28;20076;-88
2022/03/17 03:33:05;;;;;;;15.00;9.35;;;11.30;1.00;;;;;;5013987;28;20378;-87
2022/03/17 03:38:15;;;;;;;11.20;9.27;;;11.30;1.00;;;;;;5012551;28;20052;-88
2022/03/17 03:40:41;;;;;;;15.18;10.55;;;11.30;1.00;;;;;;5008547;28;20030;-87
2022/03/17 03:43:06;;;;;;;15.73;10.70;;;11.30;1.00;;;;;;5011710;28;20026;-87
2022/03/17 03:45:32;;;;;;;15.60;10.60;;;11.20;1.00;;;;;;5013205;28;20037;-87
2022/03/17 03:47:58;;;;;;;14.20;10.00;;;11.20;1.00;;;;;;5012162;28;20029;-87
2022/03/17 03:50:25;;;;;;;12.70;9.63;;;11.10;1.00;;;;;;5013022;28;20050;-93
2022/03/17 03:52:51;;;;;;;16.35;10.32;;;11.10;1.00;;;;;;5015812;28;20058;-93
2022/03/17 03:55:16;;;;;;;15.52;10.52;;;11.10;1.00;;;;;;5010815;28;20053;-93
2022/03/17 03:57:42;;;;;;;13.63;10.57;;;11.00;1.00;;;;;;5011683;28;20030;-93
2022/03/17 04:03:03;;;;;;;14.93;10.50;;;11.10;1.00;;;;;;5008486;28;20034;-93
2022/03/17 04:05:32;;;;;;;15.10;10.50;;;11.10;1.00;;;;;;5013502;28;20421;-93
2022/03/17 04:07:58;;;;;;;15.65;10.30;;;11.10;1.00;;;;;;5014078;28;20402;-93
2022/03/17 04:10:25;;;;;;;14.93;9.60;;;11.10;1.00;;;;;;5013579;28;20026;-94
2022/03/17 04:12:51;;;;;;;14.55;9.20;;;11.10;1.00;;;;;;5010652;28;20030;-93
2022/03/17 04:15:16;;;;;;;11.48;8.60;;;11.10;1.00;;;;;;5010878;28;20037;-94
2022/03/17 04:17:42;;;;;;;13.85;8.77;;;11.10;1.00;;;;;;5013365;28;20026;-93
2022/03/17 04:20:09;;;;;;;13.30;9.13;;;11.00;1.00;;;;;;5014849;28;20030;-93
2022/03/17 04:22:35;;;;;;;13.77;8.25;;;10.80;1.00;;;;;;5012620;28;20021;-93
2022/03/17 04:25:01;;;;;;;13.30;9.05;;;10.80;1.00;;;;;;5007848;28;20052;-93
2022/03/17 04:27:27;;;;;;;9.85;8.10;;;10.80;1.00;;;;;;5011320;28;20030;-93
2022/03/17 04:29:52;;;;;;;11.57;8.40;;;10.80;1.00;;;;;;5012307;28;20030;-93
2022/03/17 04:32:18;;;;;;;10.68;8.98;;;10.80;1.00;;;;;;5012051;28;20029;-93
2022/03/17 04:34:43;;;;;;;12.57;8.65;;;10.70;1.00;;;;;;5011331;28;20116;-93
2022/03/17 04:37:09;;;;;;;9.88;8.27;;;10.70;1.00;;;;;;5008968;28;20138;-93
2022/03/17 04:39:35;;;;;;;10.90;8.32;;;10.70;1.00;;;;;;5013243;28;20525;-93
2022/03/17 04:42:00;;;;;;;13.05;9.23;;;10.70;1.00;;;;;;5010950;28;20076;-93
2022/03/17 04:44:26;;;;;;;13.93;9.02;;;10.70;1.00;;;;;;5011663;28;20027;-93
2022/03/17 04:46:51;;;;;;;11.50;8.90;;;10.70;1.00;;;;;;5013579;28;20022;-93
2022/03/17 04:49:17;;;;;;;14.40;9.07;;;10.60;1.00;;;;;;5012121;28;20473;-94
2022/03/17 04:51:43;;;;;;;16.60;9.55;;;10.60;1.00;;;;;;5000059;28;20049;-93
2022/03/17 04:54:09;;;;;;;16.30;10.02;;;10.70;1.00;;;;;;5005430;28;20502;-94
2022/03/17 04:56:34;;;;;;;15.35;9.30;;;10.60;1.00;;;;;;4995742;28;20041;-93
2022/03/17 04:59:00;;;;;;;14.38;9.82;;;10.60;1.00;;;;;;5010469;28;20034;-93
2022/03/17 05:01:26;;;;;;;14.82;9.63;;;10.50;1.00;;;;;;5005454;28;20041;-93
2022/03/17 05:03:52;;;;;;;16.70;9.88;;;10.50;1.00;;;;;;5005846;28;20040;-93
2022/03/17 05:06:18;;;;;;;14.63;9.50;;;10.60;1.00;;;;;;5004987;28;20085;-93
2022/03/17 05:08:44;;;;;;;13.52;9.80;;;10.60;1.00;;;;;;4998831;28;20034;-93
2022/03/17 05:11:10;;;;;;;16.48;10.15;;;10.50;1.00;;;;;;5005989;28;20117;-93
2022/03/17 05:13:37;;;;;;;14.00;10.15;;;10.60;1.00;;;;;;5013764;28;20041;-93
2022/03/17 05:16:06;;;;;;;13.52;10.05;;;10.50;1.00;;;;;;5006237;28;20041;-89
2022/03/17 05:18:33;;;;;;;16.42;10.13;;;10.50;1.00;;;;;;5002413;28;20026;-91
2022/03/17 05:20:59;;;;;;;11.80;10.38;;;10.50;1.00;;;;;;5011154;28;20038;-90
2022/03/17 05:23:24;;;;;;;14.48;10.32;;;10.50;1.00;;;;;;5011271;28;20038;-90
2022/03/17 05:25:51;;;;;;;14.43;10.27;;;10.50;1.00;;;;;;5012517;28;20032;-90
2022/03/17 05:28:17;;;;;;;14.43;9.98;;;10.40;1.00;;;;;;5011773;28;20061;-89
2022/03/17 05:30:44;;;;;;;19.15;10.65;;;10.40;1.00;;;;;;5007459;28;20030;-90
2022/03/17 05:33:11;;;;;;;16.15;11.00;;;10.40;1.00;;;;;;5011311;28;20037;-89
2022/03/17 05:35:39;;;;;;;12.82;9.60;;;10.40;1.00;;;;;;5010644;28;20034;-90
2022/03/17 05:38:05;;;;;;;13.05;9.52;;;10.40;1.00;;;;;;4996168;28;20050;-90
2022/03/17 05:40:32;;;;;;;15.63;9.93;;;10.50;1.00;;;;;;5010061;28;20030;-89
2022/03/17 05:43:01;;;;;;;18.15;9.63;;;10.30;1.00;;;;;;5010788;28;20022;-89
2022/03/17 05:45:28;;;;;;;16.27;9.65;;;10.40;1.00;;;;;;5009802;28;20396;-92
2022/03/17 05:47:56;;;;;;;16.63;9.80;;;10.40;1.00;;;;;;5011128;28;20042;-91
2022/03/17 05:50:24;;;;;;;13.05;10.07;;;10.40;1.00;;;;;;5011317;28;20026;-90
2022/03/17 05:52:51;;;;;;;14.48;9.57;;;10.40;1.00;;;;;;5013649;28;20084;-93
2022/03/17 05:55:19;;;;;;;12.98;9.40;;;10.40;1.00;;;;;;5009943;28;20367;-94
2022/03/17 05:57:48;;;;;;;15.93;10.45;;;10.40;1.00;;;;;;5010244;28;20394;-94
2022/03/17 06:00:18;;;;;;;13.50;9.65;;;10.70;1.00;;;;;;5011530;28;20030;-94
2022/03/17 06:02:44;;;;;;;13.10;10.00;;;10.40;1.00;;;;;;5012254;28;20049;-94
2022/03/17 06:05:12;;;;;;;14.93;10.25;;;10.40;1.00;;;;;;5013021;28;20033;-94
2022/03/17 06:07:44;;;;;;;16.13;9.70;;;10.40;1.00;;;;;;5011441;28;20544;-93
2022/03/17 06:10:15;;;;;;;18.08;10.02;;;10.40;1.00;;;;;;5011662;28;20482;-94
2022/03/17 06:12:41;;;;;;;16.17;9.80;;;10.40;1.00;;;;;;5010478;28;20033;-94
2022/03/17 06:15:07;;;;;;;14.63;10.55;;;10.40;1.00;;;;;;5010244;28;20049;-94
2022/03/17 06:17:41;;;;;;;14.55;10.30;;;10.40;1.00;;;;;;4993263;28;20034;-95
2022/03/17 06:20:09;;;;;;;16.33;10.85;;;10.40;1.00;;;;;;5009766;28;20049;-94
2022/03/17 06:22:40;;;;;;;15.15;10.10;;;10.40;1.00;;;;;;5012069;28;20041;-94
2022/03/17 06:25:08;;;;;;;18.67;9.70;;;10.40;1.00;;;;;;5011709;28;20482;-94
2022/03/17 06:27:36;;;;;;;18.17;10.23;;;10.50;1.00;;;;;;5011328;28;20417;-94
2022/03/17 06:30:07;;;;;;;20.25;10.60;;;10.50;1.00;;;;;;5011273;28;20025;-94
2022/03/17 06:32:38;;;;;;;17.52;10.60;;;10.50;1.00;;;;;;4993672;28;20033;-94
2022/03/17 06:35:04;;;;;;;16.90;10.90;;;10.40;1.00;;;;;;5008142;28;20371;-93
2022/03/17 06:37:29;;;;;;;15.55;10.98;;;10.50;1.00;;;;;;5012291;28;20064;-94
2022/03/17 06:39:55;;;;;;;13.75;10.55;;;10.60;1.00;;;;;;5011151;28;20026;-93
2022/03/17 06:42:21;;;;;;;16.70;10.73;;;10.70;1.00;;;;;;5011884;28;20378;-94
2022/03/17 06:44:47;;;;;;;19.73;11.23;;;10.70;1.00;;;;;;5010542;28;20372;-94
2022/03/17 06:47:13;;;;;;;19.05;11.55;;;10.80;1.00;;;;;;5011030;28;20498;-94
2022/03/17 06:49:39;;;;;;;19.88;12.57;;;10.90;1.00;;;;;;5010759;28;20041;-94
2022/03/17 06:52:05;;;;;;;18.38;11.00;;;10.90;1.00;;;;;;5006344;28;20034;-94
2022/03/17 06:54:30;;;;;;;19.00;11.80;;;11.00;1.00;;;;;;5002400;28;20029;-95
2022/03/17 06:56:56;;;;;;;19.05;11.57;;;11.20;1.00;;;;;;5009837;28;20037;-94
2022/03/17 06:59:22;;;;;;;21.35;11.18;;;11.20;1.00;;;;;;5010270;28;20026;-94
2022/03/17 07:01:47;;;;;;;15.98;11.50;;;11.20;1.00;;;;;;5010328;28;20041;-94
2022/03/17 07:04:13;;;;;;;21.23;11.32;;;11.10;1.00;;;;;;5011368;28;20077;-94
2022/03/17 07:06:39;;;;;;;24.83;12.57;;;11.30;1.00;;;;;;5011045;28;20030;-94
2022/03/17 07:09:04;;;;;;;16.27;12.07;;;11.30;1.00;;;;;;5010487;28;20026;-94
2022/03/17 07:11:30;;;;;;;16.55;11.63;;;11.70;1.00;;;;;;5010874;28;20026;-94
2022/03/17 07:13:55;;;;;;;16.70;11.48;;;11.50;1.00;;;;;;5011372;28;20030;-94
2022/03/17 07:16:21;;;;;;;18.27;12.45;;;11.70;1.00;;;;;;5010856;28;20049;-94
2022/03/17 07:18:47;;;;;;;20.05;11.95;;;11.60;1.00;;;;;;5010304;28;20026;-94
2022/03/17 07:21:13;;;;;;;20.40;11.93;;;12.00;1.00;;;;;;5009287;28;20030;-94
2022/03/17 07:23:39;;;;;;;20.85;11.77;;;11.80;1.00;;;;;;5010982;28;20109;-94
2022/03/17 07:26:08;;;;;;;16.95;11.20;;;11.90;1.00;;;;;;5013998;28;20040;-96
2022/03/17 07:28:34;;;;;;;17.38;11.65;;;12.00;1.00;;;;;;5011288;28;20026;-85
2022/03/17 07:31:00;;;;;;;19.75;12.18;;;12.30;1.00;;;;;;5007640;28;20465;-86
2022/03/17 07:33:26;;;;;;;21.30;12.05;;;12.50;1.00;;;;;;5008985;28;20029;-86
2022/03/17 07:35:51;;;;;;;19.52;12.63;;;12.60;1.00;;;;;;5008970;28;20052;-86
2022/03/17 07:38:17;;;;;;;20.33;12.65;;;12.70;1.00;;;;;;5011702;28;20137;-86
2022/03/17 07:40:43;;;;;;;25.13;13.93;;;12.70;1.00;;;;;;5012394;28;20037;-86
2022/03/17 07:43:08;;;;;;;18.23;12.65;;;12.80;1.00;;;;;;5011429;28;20441;-86
2022/03/17 07:45:34;;;;;;;20.92;13.48;;;12.70;1.00;;;;;;5008422;28;20030;-85
2022/03/17 07:48:00;;;;;;;24.40;13.07;;;12.60;1.00;;;;;;5011007;28;20018;-86
2022/03/17 07:50:26;;;;;;;23.35;12.93;;;12.70;1.00;;;;;;5005820;28;20037;-88
2022/03/17 07:52:51;;;;;;;22.38;12.82;;;12.70;1.00;;;;;;5013265;28;20029;-84
2022/03/17 07:55:18;;;;;;;22.13;13.52;;;12.70;1.00;;;;;;5011884;28;20501;-85
2022/03/17 07:57:44;;;;;;;26.10;13.25;;;12.90;1.00;;;;;;5012093;28;20037;-85
2022/03/17 08:00:11;;;;;;;25.55;13.15;;;12.90;1.00;;;;;;5012105;28;20044;-85
2022/03/17 08:02:37;;;;;;;17.83;12.05;;;13.00;1.00;;;;;;5012120;28;20023;-85
2022/03/17 08:05:05;;;;;;;21.75;13.60;;;13.10;1.00;;;;;;5014540;28;20018;-84
2022/03/17 08:07:33;;;;;;;22.75;13.70;;;13.10;1.00;;;;;;5011923;28;20053;-84
2022/03/17 08:09:59;;;;;;;19.88;12.52;;;13.00;1.00;;;;;;5012050;28;20026;-84
2022/03/17 08:12:28;;;;;;;23.40;14.35;;;13.00;1.00;;;;;;5011792;28;20025;-84
2022/03/17 08:14:54;;;;;;;19.83;12.82;;;13.10;1.00;;;;;;5011155;28;20037;-85
2022/03/17 08:17:20;;;;;;;21.65;12.73;;;13.10;1.00;;;;;;5013280;28;20108;-85
2022/03/17 08:19:46;;;;;;;18.00;13.48;;;13.20;1.00;;;;;;5011842;28;20022;-84
2022/03/17 08:22:11;;;;;;;16.73;13.13;;;13.30;1.00;;;;;;5010349;28;20030;-85
2022/03/17 08:24:37;;;;;;;19.48;13.10;;;13.40;1.00;;;;;;5011524;28;20018;-84
2022/03/17 08:27:04;;;;;;;19.23;13.82;;;13.30;1.00;;;;;;5011954;28;20437;-85
2022/03/17 08:29:30;;;;;;;17.00;13.10;;;13.40;1.00;;;;;;5011418;28;20030;-85
2022/03/17 08:31:56;;;;;;;17.95;13.00;;;13.60;1.00;;;;;;5013647;28;20425;-84
2022/03/17 08:34:21;;;;;;;18.70;12.70;;;13.60;1.00;;;;;;5011529;28;20026;-85
2022/03/17 08:36:49;;;;;;;24.25;13.32;;;13.70;1.00;;;;;;5011484;28;20485;-84
2022/03/17 08:39:15;;;;;;;19.30;12.50;;;13.60;1.00;;;;;;5011745;28;20509;-85
2022/03/17 08:41:41;;;;;;;25.67;13.93;;;13.60;1.00;;;;;;5011442;28;20026;-85
2022/03/17 08:44:06;;;;;;;19.00;13.85;;;13.60;1.00;;;;;;5012648;28;20022;-84
2022/03/17 08:49:19;;;;;;;20.45;13.10;;;13.80;1.00;;;;;;5010366;28;20080;-85
2022/03/17 08:51:59;;;;;;;26.90;13.90;;;13.90;1.00;;;;;;5011384;28;20030;-85
2022/03/17 08:54:27;;;;;;;21.75;13.90;;;13.90;1.00;;;;;;5011330;28;20049;-84
2022/03/17 08:57:01;;;;;;;20.27;12.55;;;14.10;1.00;;;;;;5009423;28;20045;-85
2022/03/17 08:59:31;;;;;;;26.98;13.57;;;14.10;1.00;;;;;;5010888;28;20363;-85
2022/03/17 09:02:06;;;;;;;22.85;14.70;;;14.10;1.00;;;;;;5012584;28;20438;-85
2022/03/17 09:04:32;;;;;;;23.23;14.20;;;14.20;1.00;;;;;;5011526;28;20545;-85
2022/03/17 09:06:59;;;;;;;18.52;13.65;;;14.30;1.00;;;;;;5010808;28;20033;-85
2022/03/17 09:09:34;;;;;;;21.30;13.30;;;14.40;1.00;;;;;;5011293;28;20025;-85
2022/03/17 09:12:05;;;;;;;22.10;12.60;;;14.40;1.00;;;;;;5010834;28;20026;-85
2022/03/17 09:14:32;;;;;;;22.55;13.25;;;14.50;1.00;;;;;;5010574;28;20053;-85
2022/03/17 09:16:58;;;;;;;19.92;12.55;;;14.70;1.00;;;;;;5012789;28;20427;-84
2022/03/17 09:19:24;;;;;;;17.70;13.07;;;15.00;1.00;;;;;;5010690;28;20144;-85
2022/03/17 09:21:49;;;;;;;18.35;13.57;;;15.30;1.00;;;;;;5010619;28;20087;-85
2022/03/17 09:24:15;;;;;;;17.95;13.23;;;15.30;1.00;;;;;;5010809;28;20038;-85
2022/03/17 09:26:40;;;;;;;17.85;12.45;;;15.30;1.00;;;;;;5011076;28;20026;-85
2022/03/17 09:29:06;;;;;;;18.25;12.93;;;15.50;1.00;;;;;;5011930;28;20029;-85
2022/03/17 09:31:32;;;;;;;18.75;12.73;;;15.50;1.00;;;;;;5010931;28;20105;-85
2022/03/17 09:33:58;;;;;;;18.60;14.18;;;15.50;1.00;;;;;;5010801;28;20394;-85
2022/03/17 09:36:24;;;;;;;18.38;13.70;;;15.70;1.00;;;;;;5008162;28;20034;-85
2022/03/17 09:41:35;;;;;;;17.85;13.18;;;16.00;1.00;;;;;;4994784;28;20037;-85
2022/03/17 09:44:02;;;;;;;18.50;13.93;;;16.40;1.00;;;;;;5012258;28;20096;-85
2022/03/17 09:46:30;;;;;;;20.90;14.60;;;16.20;1.00;;;;;;5010192;28;20030;-84
2022/03/17 09:48:57;;;;;;;18.17;13.63;;;16.20;1.00;;;;;;5009378;28;20026;-85
2022/03/17 09:51:25;;;;;;;19.52;13.20;;;16.20;1.00;;;;;;5009976;28;20510;-85
2022/03/17 09:53:53;;;;;;;19.65;13.57;;;16.40;1.00;;;;;;5010486;28;20502;-85
2022/03/17 09:56:23;;;;;;;16.77;12.43;;;16.20;1.00;;;;;;5010508;28;20045;-85
2022/03/17 09:58:51;;;;;;;17.27;12.73;;;16.30;1.00;;;;;;5010522;28;20556;-85
2022/03/17 10:01:19;;;;;;;20.85;13.25;;;16.10;1.00;;;;;;5009456;28;20037;-85
2022/03/17 10:03:45;;;;;;;15.38;12.55;;;16.20;1.00;;;;;;5008743;28;20022;-85
2022/03/17 10:06:11;;;;;;;18.15;13.35;;;16.20;1.00;;;;;;5010083;28;20061;-85
2022/03/17 10:08:39;;;;;;;21.45;13.85;;;16.40;1.00;;;;;;5009836;28;20394;-85
2022/03/17 10:11:06;;;;;;;16.17;12.82;;;16.50;1.00;;;;;;5011736;28;20034;-85
2022/03/17 10:13:34;;;;;;;15.35;12.23;;;16.60;1.00;;;;;;5010392;28;20026;-85
2022/03/17 10:16:11;;;;;;;17.70;11.82;;;16.60;1.00;;;;;;5008113;28;20088;-85
2022/03/17 10:18:38;;;;;;;21.08;12.43;;;16.60;1.00;;;;;;5008325;28;20022;-85
2022/03/17 10:21:06;;;;;;;17.67;12.27;;;17.00;1.00;;;;;;5010673;28;20030;-85
2022/03/17 10:23:32;;;;;;;15.80;11.95;;;17.00;1.00;;;;;;5009522;28;20026;-85
2022/03/17 10:25:57;;;;;;;15.18;11.35;;;16.80;1.00;;;;;;5011510;28;20502;-85
2022/03/17 10:28:26;;;;;;;14.38;11.40;;;16.90;1.00;;;;;;5009629;28;20509;-85
2022/03/17 10:31:05;;;;;;;19.52;12.60;;;17.50;1.00;;;;;;5009784;28;20050;-85
2022/03/17 10:33:32;;;;;;;17.17;11.55;;;17.50;1.00;;;;;;5009556;28;20052;-85
2022/03/17 10:36:21;;;;;;;18.38;12.65;;;17.60;1.00;;;;;;5009525;28;20394;-85
2022/03/17 10:38:49;;;;;;;16.67;10.88;;;17.50;1.00;;;;;;4996120;28;20037;-85
2022/03/17 10:41:15;;;;;;;19.23;12.55;;;17.90;1.00;;;;;;5010167;28;20038;-85
2022/03/17 10:43:42;;;;;;;19.70;12.45;;;17.90;1.00;;;;;;5010901;28;20068;-85
2022/03/17 10:46:12;;;;;;;17.92;12.38;;;17.70;1.00;;;;;;5009417;28;20026;-85
2022/03/17 10:48:52;;;;;;;17.80;13.32;;;17.40;1.00;;;;;;5009277;28;20448;-85
2022/03/17 10:51:37;;;;;;;18.55;12.02;;;17.30;1.00;;;;;;5009633;28;20097;-85
2022/03/17 10:54:11;;;;;;;20.30;12.32;;;17.30;1.00;;;;;;5006656;28;20454;-85
2022/03/17 10:56:39;;;;;;;17.75;12.38;;;17.70;1.00;;;;;;4992509;28;20065;-85
2022/03/17 10:59:06;;;;;;;17.98;11.93;;;18.10;1.00;;;;;;5011460;28;20062;-85
2022/03/17 11:01:39;;;;;;;16.23;12.07;;;18.60;1.00;;;;;;5010732;28;20038;-85
2022/03/17 11:04:06;;;;;;;21.63;12.65;;;18.20;1.00;;;;;;5009325;28;20374;-85
2022/03/17 11:06:33;;;;;;;15.95;11.85;;;17.80;1.00;;;;;;5009279;28;20021;-85
2022/03/17 11:09:01;;;;;;;18.45;12.13;;;17.20;1.00;;;;;;5009124;28;20058;-85
2022/03/17 11:11:30;;;;;;;22.77;12.68;;;16.80;1.00;;;;;;5009203;28;20703;-85
2022/03/17 11:13:59;;;;;;;21.05;12.38;;;16.50;1.00;;;;;;5013559;28;20021;-85
2022/03/17 11:16:39;;;;;;;19.38;12.75;;;16.30;1.00;;;;;;5013681;28;20064;-85
2022/03/17 11:19:07;;;;;;;16.55;12.52;;;16.20;1.00;;;;;;5012960;28;20061;-85
2022/03/17 11:21:33;;;;;;;22.80;13.02;;;15.80;1.00;;;;;;5013177;28;20065;-85
2022/03/17 11:24:04;;;;;;;21.75;13.15;;;15.80;1.00;;;;;;5012694;28;20014;-85
2022/03/17 11:26:39;;;;;;;24.38;12.35;;;15.50;1.00;;;;;;5013209;28;20413;-85
2022/03/17 11:29:13;;;;;;;18.65;12.80;;;15.60;1.00;;;;;;5011229;28;20397;-85
2022/03/17 11:31:56;;;;;;;23.52;13.50;;;15.50;1.00;;;;;;5013673;28;20022;-85
2022/03/17 11:34:46;;;;;;;20.48;11.48;;;15.40;1.00;;;;;;5010768;28;20030;-85
2022/03/17 11:37:27;;;;;;;20.55;12.13;;;15.30;1.00;;;;;;5011401;28;20522;-85
2022/03/17 11:40:09;;;;;;;20.55;12.65;;;15.30;1.00;;;;;;5012397;28;20405;-85
2022/03/17 11:42:38;;;;;;;24.83;13.43;;;15.20;1.00;;;;;;5012888;28;20179;-86
2022/03/17 11:45:09;;;;;;;20.02;12.75;;;15.30;1.00;;;;;;5013449;28;20022;-85
2022/03/17 11:47:37;;;;;;;20.13;13.00;;;15.10;1.00;;;;;;4997654;28;20034;-85
2022/03/17 11:50:36;;;;;;;20.20;13.50;;;15.10;1.00;;;;;;5010065;28;20218;-85
2022/03/17 11:53:08;;;;;;;19.27;12.07;;;14.90;1.00;;;;;;5010320;28;20482;-85
2022/03/17 11:55:34;;;;;;;24.27;12.90;;;15.00;1.00;;;;;;5013947;28;20050;-85
2022/03/17 11:58:37;;;;;;;22.52;12.88;;;14.90;1.00;;;;;;5012657;28;20034;-85
2022/03/17 12:01:11;;;;;;;16.45;12.15;;;14.90;1.00;;;;;;5012272;28;20025;-85
2022/03/17 12:03:50;;;;;;;22.42;12.93;;;14.70;1.00;;;;;;5012041;28;20061;-85
2022/03/17 12:06:18;;;;;;;26.23;13.00;;;14.80;1.00;;;;;;5012311;28;20541;-85
2022/03/17 12:09:04;;;;;;;24.08;13.02;;;14.80;1.00;;;;;;5011924;28;20505;-85
2022/03/17 12:11:38;;;;;;;21.70;13.88;;;14.70;1.00;;;;;;5012075;28;20521;-85
2022/03/17 12:14:17;;;;;;;25.83;13.70;;;14.60;1.00;;;;;;5010176;28;20034;-85
2022/03/17 12:16:56;;;;;;;23.45;13.50;;;14.60;1.00;;;;;;5013265;28;20044;-84
2022/03/17 12:19:34;;;;;;;22.08;13.07;;;14.50;1.00;;;;;;5012096;28;20026;-85
2022/03/17 12:22:03;;;;;;;22.90;14.38;;;14.60;1.00;;;;;;5011317;28;20038;-85
2022/03/17 12:24:39;;;;;;;20.58;14.02;;;14.50;1.00;;;;;;5011632;28;20080;-85
2022/03/17 12:27:13;;;;;;;21.52;14.73;;;14.40;1.00;;;;;;5012337;28;20041;-83
2022/03/17 12:29:41;;;;;;;23.65;14.60;;;14.40;1.00;;;;;;4997057;28;20508;-82
2022/03/17 12:32:10;;;;;;;26.15;14.98;;;14.30;1.00;;;;;;5013372;28;20128;-82
2022/03/17 12:34:37;;;;;;;22.75;14.95;;;14.40;1.00;;;;;;5010919;28;20076;-83
2022/03/17 12:37:04;;;;;;;20.40;13.55;;;14.40;1.00;;;;;;5010718;28;20054;-82
2022/03/17 12:39:30;;;;;;;23.40;14.73;;;14.40;1.00;;;;;;5011460;28;20034;-85
2022/03/17 12:42:00;;;;;;;25.20;15.00;;;14.50;1.00;;;;;;5011634;28;20034;-85
2022/03/17 12:44:27;;;;;;;26.20;15.82;;;14.50;1.00;;;;;;5011918;28;24412;-85
2022/03/17 12:46:55;;;;;;;21.52;15.20;;;14.50;1.00;;;;;;5013827;28;20394;-85
2022/03/17 12:49:21;;;;;;;24.88;14.98;;;14.50;1.00;;;;;;5011632;28;20030;-85
2022/03/17 12:51:50;;;;;;;24.60;15.98;;;14.50;1.00;;;;;;5009024;28;20028;-85
2022/03/17 12:54:17;;;;;;;26.92;15.85;;;14.60;1.00;;;;;;5009858;28;20038;-85
2022/03/17 12:56:50;;;;;;;23.80;15.13;;;14.70;1.00;;;;;;5011488;28;20518;-85
2022/03/17 12:59:16;;;;;;;28.15;14.90;;;14.70;1.00;;;;;;5012155;28;20381;-85
2022/03/17 13:01:42;;;;;;;25.63;15.05;;;14.60;1.00;;;;;;5011928;28;20113;-85
2022/03/17 13:04:07;;;;;;;23.05;15.77;;;14.50;1.00;;;;;;5011282;28;20034;-85